sensor_id;sensor_type;location;lat;lon;timestamp;temperature;humidity
72591;SHT31;60625;51.212;5.952;2024-01-15T00:02:23;1.30;88.79
72591;SHT31;60625;51.212;5.952;2024-01-15T00:07:24;1.27;88.88
72591;SHT31;60625;51.212;5.952;2024-01-15T00:12:24;1.26;89.00
72591;SHT31;60625;51.212;5.952;2024-01-15T00:17:25;1.24;89.11
72591;SHT31;60625;51.212;5.952;2024-01-15T00:22:25;1.24;89.21
72591;SHT31;60625;51.212;5.952;2024-01-15T00:27:27;1.23;89.34
72591;SHT31;60625;51.212;5.952;2024-01-15T00:32:31;1.23;89.40
72591;SHT31;60625;51.212;5.952;2024-01-15T00:37:31;1.24;89.51
72591;SHT31;60625;51.212;5.952;2024-01-15T00:42:32;1.25;89.61
72591;SHT31;60625;51.212;5.952;2024-01-15T00:47:32;1.27;89.69
72591;SHT31;60625;51.212;5.952;2024-01-15T00:52:34;1.30;89.74
72591;SHT31;60625;51.212;5.952;2024-01-15T00:57:35;1.32;89.81
72591;SHT31;60625;51.212;5.952;2024-01-15T01:02:36;1.33;89.88
72591;SHT31;60625;51.212;5.952;2024-01-15T01:07:36;1.32;89.98
72591;SHT31;60625;51.212;5.952;2024-01-15T01:12:37;1.32;90.01
72591;SHT31;60625;51.212;5.952;2024-01-15T01:17:37;1.31;90.07
72591;SHT31;60625;51.212;5.952;2024-01-15T01:22:38;1.31;90.10
72591;SHT31;60625;51.212;5.952;2024-01-15T01:27:39;1.33;90.19
72591;SHT31;60625;51.212;5.952;2024-01-15T01:32:39;1.34;90.26
72591;SHT31;60625;51.212;5.952;2024-01-15T01:37:40;1.36;90.29
72591;SHT31;60625;51.212;5.952;2024-01-15T01:42:41;1.37;90.29
72591;SHT31;60625;51.212;5.952;2024-01-15T01:47:41;1.38;90.31
72591;SHT31;60625;51.212;5.952;2024-01-15T01:52:42;1.37;90.29
72591;SHT31;60625;51.212;5.952;2024-01-15T01:57:42;1.37;90.27
72591;SHT31;60625;51.212;5.952;2024-01-15T02:02:43;1.38;90.32
72591;SHT31;60625;51.212;5.952;2024-01-15T02:07:44;1.39;90.40
72591;SHT31;60625;51.212;5.952;2024-01-15T02:12:44;1.41;90.46
72591;SHT31;60625;51.212;5.952;2024-01-15T02:18:02;1.43;90.49
72591;SHT31;60625;51.212;5.952;2024-01-15T02:23:14;1.45;90.46
72591;SHT31;60625;51.212;5.952;2024-01-15T02:28:16;1.47;90.49
72591;SHT31;60625;51.212;5.952;2024-01-15T02:33:18;1.49;90.49
72591;SHT31;60625;51.212;5.952;2024-01-15T02:38:18;1.50;90.43
72591;SHT31;60625;51.212;5.952;2024-01-15T02:43:19;1.49;90.32
72591;SHT31;60625;51.212;5.952;2024-01-15T02:48:19;1.46;90.23
72591;SHT31;60625;51.212;5.952;2024-01-15T02:53:20;1.44;90.21
72591;SHT31;60625;51.212;5.952;2024-01-15T02:58:21;1.41;90.20
72591;SHT31;60625;51.212;5.952;2024-01-15T03:03:22;1.39;90.20
72591;SHT31;60625;51.212;5.952;2024-01-15T03:08:22;1.36;90.21
72591;SHT31;60625;51.212;5.952;2024-01-15T03:13:23;1.33;90.22
72591;SHT31;60625;51.212;5.952;2024-01-15T03:18:23;1.32;90.29
72591;SHT31;60625;51.212;5.952;2024-01-15T03:23:24;1.32;90.29
72591;SHT31;60625;51.212;5.952;2024-01-15T03:28:24;1.30;90.35
72591;SHT31;60625;51.212;5.952;2024-01-15T03:33:25;1.29;90.37
72591;SHT31;60625;51.212;5.952;2024-01-15T03:38:27;1.27;90.32
72591;SHT31;60625;51.212;5.952;2024-01-15T03:43:28;1.25;90.39
72591;SHT31;60625;51.212;5.952;2024-01-15T03:48:29;1.26;90.45
72591;SHT31;60625;51.212;5.952;2024-01-15T03:53:31;1.24;90.40
72591;SHT31;60625;51.212;5.952;2024-01-15T03:58:31;1.21;90.40
72591;SHT31;60625;51.212;5.952;2024-01-15T04:03:33;1.20;90.40
72591;SHT31;60625;51.212;5.952;2024-01-15T04:08:33;1.19;90.43
72591;SHT31;60625;51.212;5.952;2024-01-15T04:13:34;1.20;90.56
72591;SHT31;60625;51.212;5.952;2024-01-15T04:18:34;1.25;90.68
72591;SHT31;60625;51.212;5.952;2024-01-15T04:23:35;1.27;90.61
72591;SHT31;60625;51.212;5.952;2024-01-15T04:28:35;1.29;90.58
72591;SHT31;60625;51.212;5.952;2024-01-15T04:33:36;1.32;90.56
72591;SHT31;60625;51.212;5.952;2024-01-15T04:38:36;1.33;90.50
72591;SHT31;60625;51.212;5.952;2024-01-15T04:43:37;1.35;90.48
72591;SHT31;60625;51.212;5.952;2024-01-15T04:48:37;1.37;90.43
72591;SHT31;60625;51.212;5.952;2024-01-15T04:53:38;1.37;90.39
72591;SHT31;60625;51.212;5.952;2024-01-15T04:58:38;1.36;90.39
72591;SHT31;60625;51.212;5.952;2024-01-15T05:03:39;1.38;90.40
72591;SHT31;60625;51.212;5.952;2024-01-15T05:08:39;1.40;90.40
72591;SHT31;60625;51.212;5.952;2024-01-15T05:13:40;1.43;90.42
72591;SHT31;60625;51.212;5.952;2024-01-15T05:18:40;1.46;90.44
72591;SHT31;60625;51.212;5.952;2024-01-15T05:23:41;1.49;90.34
72591;SHT31;60625;51.212;5.952;2024-01-15T05:28:42;1.47;90.26
72591;SHT31;60625;51.212;5.952;2024-01-15T05:33:45;1.46;90.25
72591;SHT31;60625;51.212;5.952;2024-01-15T05:38:46;1.46;90.31
72591;SHT31;60625;51.212;5.952;2024-01-15T05:43:46;1.46;90.34
72591;SHT31;60625;51.212;5.952;2024-01-15T05:48:47;1.46;90.39
72591;SHT31;60625;51.212;5.952;2024-01-15T05:53:47;1.46;90.42
72591;SHT31;60625;51.212;5.952;2024-01-15T05:58:47;1.48;90.49
72591;SHT31;60625;51.212;5.952;2024-01-15T06:03:48;1.49;90.50
72591;SHT31;60625;51.212;5.952;2024-01-15T06:08:49;1.51;90.56
72591;SHT31;60625;51.212;5.952;2024-01-15T06:13:49;1.52;90.47
72591;SHT31;60625;51.212;5.952;2024-01-15T06:18:50;1.53;90.49
72591;SHT31;60625;51.212;5.952;2024-01-15T06:23:50;1.54;90.48
72591;SHT31;60625;51.212;5.952;2024-01-15T06:28:51;1.56;90.44
72591;SHT31;60625;51.212;5.952;2024-01-15T06:33:52;1.58;90.41
72591;SHT31;60625;51.212;5.952;2024-01-15T06:38:52;1.58;90.36
72591;SHT31;60625;51.212;5.952;2024-01-15T06:43:53;1.59;90.31
72591;SHT31;60625;51.212;5.952;2024-01-15T06:48:53;1.59;90.25
72591;SHT31;60625;51.212;5.952;2024-01-15T06:53:54;1.60;90.25
72591;SHT31;60625;51.212;5.952;2024-01-15T06:58:55;1.59;90.25
72591;SHT31;60625;51.212;5.952;2024-01-15T07:03:55;1.59;90.29
72591;SHT31;60625;51.212;5.952;2024-01-15T07:08:56;1.59;90.30
72591;SHT31;60625;51.212;5.952;2024-01-15T07:13:57;1.59;90.26
72591;SHT31;60625;51.212;5.952;2024-01-15T07:18:57;1.57;90.17
72591;SHT31;60625;51.212;5.952;2024-01-15T07:23:57;1.55;90.14
72591;SHT31;60625;51.212;5.952;2024-01-15T07:28:58;1.51;90.10
72591;SHT31;60625;51.212;5.952;2024-01-15T07:33:59;1.46;90.17
72591;SHT31;60625;51.212;5.952;2024-01-15T07:39:02;1.43;90.25
72591;SHT31;60625;51.212;5.952;2024-01-15T07:44:03;1.42;90.30
72591;SHT31;60625;51.212;5.952;2024-01-15T07:49:04;1.43;90.38
72591;SHT31;60625;51.212;5.952;2024-01-15T07:54:06;1.43;90.50
72591;SHT31;60625;51.212;5.952;2024-01-15T07:59:07;1.41;90.44
72591;SHT31;60625;51.212;5.952;2024-01-15T08:04:08;1.38;90.40
72591;SHT31;60625;51.212;5.952;2024-01-15T08:09:13;1.35;90.40
72591;SHT31;60625;51.212;5.952;2024-01-15T08:14:13;1.33;90.41
72591;SHT31;60625;51.212;5.952;2024-01-15T08:19:14;1.29;90.47
72591;SHT31;60625;51.212;5.952;2024-01-15T08:24:15;1.26;90.50
72591;SHT31;60625;51.212;5.952;2024-01-15T08:29:17;1.25;90.50
72591;SHT31;60625;51.212;5.952;2024-01-15T08:34:19;1.24;90.62
72591;SHT31;60625;51.212;5.952;2024-01-15T08:39:19;1.24;90.68
72591;SHT31;60625;51.212;5.952;2024-01-15T08:44:20;1.26;90.62
72591;SHT31;60625;51.212;5.952;2024-01-15T08:49:20;1.31;90.60
72591;SHT31;60625;51.212;5.952;2024-01-15T08:54:21;1.37;90.50
72591;SHT31;60625;51.212;5.952;2024-01-15T08:59:22;1.41;90.35
72591;SHT31;60625;51.212;5.952;2024-01-15T09:04:26;1.43;90.30
72591;SHT31;60625;51.212;5.952;2024-01-15T09:09:27;1.46;90.21
72591;SHT31;60625;51.212;5.952;2024-01-15T09:14:27;1.47;90.18
72591;SHT31;60625;51.212;5.952;2024-01-15T09:19:29;1.49;90.13
72591;SHT31;60625;51.212;5.952;2024-01-15T09:24:29;1.49;90.10
72591;SHT31;60625;51.212;5.952;2024-01-15T09:29:30;1.48;90.01
72591;SHT31;60625;51.212;5.952;2024-01-15T09:34:31;1.44;90.00
72591;SHT31;60625;51.212;5.952;2024-01-15T09:39:32;1.42;90.00
72591;SHT31;60625;51.212;5.952;2024-01-15T09:44:32;1.40;90.08
72591;SHT31;60625;51.212;5.952;2024-01-15T09:49:33;1.42;90.03
72591;SHT31;60625;51.212;5.952;2024-01-15T09:54:34;1.44;90.01
72591;SHT31;60625;51.212;5.952;2024-01-15T09:59:34;1.44;89.98
72591;SHT31;60625;51.212;5.952;2024-01-15T10:04:37;1.44;90.00
72591;SHT31;60625;51.212;5.952;2024-01-15T10:09:40;1.47;90.04
72591;SHT31;60625;51.212;5.952;2024-01-15T10:14:41;1.50;90.07
72591;SHT31;60625;51.212;5.952;2024-01-15T10:19:47;1.56;90.08
72591;SHT31;60625;51.212;5.952;2024-01-15T10:24:48;1.60;90.00
72591;SHT31;60625;51.212;5.952;2024-01-15T10:29:49;1.62;89.89
72591;SHT31;60625;51.212;5.952;2024-01-15T10:34:52;1.65;89.76
72591;SHT31;60625;51.212;5.952;2024-01-15T10:39:55;1.68;89.68
72591;SHT31;60625;51.212;5.952;2024-01-15T10:44:57;1.72;89.58
72591;SHT31;60625;51.212;5.952;2024-01-15T10:49:58;1.75;89.50
72591;SHT31;60625;51.212;5.952;2024-01-15T10:55:00;1.78;89.43
72591;SHT31;60625;51.212;5.952;2024-01-15T11:00:05;1.77;89.39
72591;SHT31;60625;51.212;5.952;2024-01-15T11:05:07;1.76;89.39
72591;SHT31;60625;51.212;5.952;2024-01-15T11:10:14;1.79;89.53
72591;SHT31;60625;51.212;5.952;2024-01-15T11:41:55;2.18;88.78
72591;SHT31;60625;51.212;5.952;2024-01-15T11:47:02;2.18;88.61
72591;SHT31;60625;51.212;5.952;2024-01-15T11:52:15;2.16;88.60
72591;SHT31;60625;51.212;5.952;2024-01-15T11:57:23;2.17;88.56
72591;SHT31;60625;51.212;5.952;2024-01-15T12:02:39;2.42;88.64
72591;SHT31;60625;51.212;5.952;2024-01-15T12:07:43;2.70;87.92
72591;SHT31;60625;51.212;5.952;2024-01-15T12:12:59;2.87;87.36
72591;SHT31;60625;51.212;5.952;2024-01-15T12:18:07;2.99;86.75
72591;SHT31;60625;51.212;5.952;2024-01-15T12:23:09;2.98;86.33
72591;SHT31;60625;51.212;5.952;2024-01-15T12:28:11;2.91;86.37
72591;SHT31;60625;51.212;5.952;2024-01-15T12:33:17;2.77;86.48
72591;SHT31;60625;51.212;5.952;2024-01-15T12:38:19;2.67;86.81
72591;SHT31;60625;51.212;5.952;2024-01-15T12:43:20;2.60;86.96
72591;SHT31;60625;51.212;5.952;2024-01-15T12:48:22;2.60;87.14
72591;SHT31;60625;51.212;5.952;2024-01-15T12:53:22;2.62;87.13
72591;SHT31;60625;51.212;5.952;2024-01-15T12:58:23;2.63;86.86
72591;SHT31;60625;51.212;5.952;2024-01-15T13:03:23;2.62;86.67
72591;SHT31;60625;51.212;5.952;2024-01-15T13:08:25;2.61;86.47
72591;SHT31;60625;51.212;5.952;2024-01-15T13:13:27;2.65;86.50
72591;SHT31;60625;51.212;5.952;2024-01-15T13:18:27;2.63;86.50
72591;SHT31;60625;51.212;5.952;2024-01-15T13:23:28;2.66;86.61
72591;SHT31;60625;51.212;5.952;2024-01-15T13:28:29;2.58;86.34
72591;SHT31;60625;51.212;5.952;2024-01-15T13:33:30;2.48;86.46
72591;SHT31;60625;51.212;5.952;2024-01-15T13:38:31;2.44;86.68
72591;SHT31;60625;51.212;5.952;2024-01-15T13:43:36;2.42;86.85
72591;SHT31;60625;51.212;5.952;2024-01-15T13:48:37;2.45;86.90
72591;SHT31;60625;51.212;5.952;2024-01-15T13:53:37;2.49;86.93
72591;SHT31;60625;51.212;5.952;2024-01-15T13:58:39;2.44;86.74
72591;SHT31;60625;51.212;5.952;2024-01-15T14:03:39;2.31;86.86
72591;SHT31;60625;51.212;5.952;2024-01-15T14:08:40;2.20;87.21
72591;SHT31;60625;51.212;5.952;2024-01-15T14:13:40;2.13;87.53
72591;SHT31;60625;51.212;5.952;2024-01-15T14:18:41;2.04;87.61
72591;SHT31;60625;51.212;5.952;2024-01-15T14:23:42;1.97;87.83
72591;SHT31;60625;51.212;5.952;2024-01-15T14:28:43;1.94;87.99
72591;SHT31;60625;51.212;5.952;2024-01-15T14:33:43;1.92;88.00
72591;SHT31;60625;51.212;5.952;2024-01-15T14:38:44;1.89;88.01
72591;SHT31;60625;51.212;5.952;2024-01-15T14:43:45;1.87;88.07
72591;SHT31;60625;51.212;5.952;2024-01-15T14:48:45;1.90;88.13
72591;SHT31;60625;51.212;5.952;2024-01-15T14:53:46;1.89;88.00
72591;SHT31;60625;51.212;5.952;2024-01-15T14:58:46;1.88;88.01
72591;SHT31;60625;51.212;5.952;2024-01-15T15:03:47;1.89;88.00
72591;SHT31;60625;51.212;5.952;2024-01-15T15:08:48;1.90;88.00
72591;SHT31;60625;51.212;5.952;2024-01-15T15:13:48;1.90;87.99
72591;SHT31;60625;51.212;5.952;2024-01-15T15:18:50;1.89;87.99
72591;SHT31;60625;51.212;5.952;2024-01-15T15:23:50;1.90;88.01
72591;SHT31;60625;51.212;5.952;2024-01-15T15:28:51;1.89;88.02
72591;SHT31;60625;51.212;5.952;2024-01-15T15:33:51;1.89;88.11
72591;SHT31;60625;51.212;5.952;2024-01-15T15:38:53;1.85;88.10
72591;SHT31;60625;51.212;5.952;2024-01-15T15:43:56;1.80;88.17
72591;SHT31;60625;51.212;5.952;2024-01-15T15:48:56;1.74;88.20
72591;SHT31;60625;51.212;5.952;2024-01-15T15:53:56;1.69;88.28
72591;SHT31;60625;51.212;5.952;2024-01-15T15:58:57;1.66;88.30
72591;SHT31;60625;51.212;5.952;2024-01-15T16:03:58;1.65;88.28
72591;SHT31;60625;51.212;5.952;2024-01-15T16:08:59;1.62;88.15
72591;SHT31;60625;51.212;5.952;2024-01-15T16:14:00;1.58;88.10
72591;SHT31;60625;51.212;5.952;2024-01-15T16:19:00;1.52;88.14
72591;SHT31;60625;51.212;5.952;2024-01-15T16:24:01;1.46;88.19
72591;SHT31;60625;51.212;5.952;2024-01-15T16:29:01;1.40;88.21
72591;SHT31;60625;51.212;5.952;2024-01-15T16:34:02;1.36;88.26
72591;SHT31;60625;51.212;5.952;2024-01-15T16:39:03;1.31;88.30
72591;SHT31;60625;51.212;5.952;2024-01-15T16:44:03;1.26;88.29
72591;SHT31;60625;51.212;5.952;2024-01-15T16:49:03;1.22;88.30
72591;SHT31;60625;51.212;5.952;2024-01-15T16:54:09;1.18;88.40
72591;SHT31;60625;51.212;5.952;2024-01-15T16:59:10;1.12;88.44
72591;SHT31;60625;51.212;5.952;2024-01-15T17:04:11;1.09;88.61
72591;SHT31;60625;51.212;5.952;2024-01-15T17:09:11;1.05;88.70
72591;SHT31;60625;51.212;5.952;2024-01-15T17:14:12;1.01;88.71
72591;SHT31;60625;51.212;5.952;2024-01-15T17:19:12;0.97;88.76
72591;SHT31;60625;51.212;5.952;2024-01-15T17:24:13;0.94;88.80
72591;SHT31;60625;51.212;5.952;2024-01-15T17:29:13;0.90;88.84
72591;SHT31;60625;51.212;5.952;2024-01-15T17:34:14;0.87;88.90
72591;SHT31;60625;51.212;5.952;2024-01-15T17:39:15;0.86;89.07
72591;SHT31;60625;51.212;5.952;2024-01-15T17:44:15;0.84;89.09
72591;SHT31;60625;51.212;5.952;2024-01-15T17:49:16;0.83;89.14
72591;SHT31;60625;51.212;5.952;2024-01-15T17:54:17;0.83;89.13
72591;SHT31;60625;51.212;5.952;2024-01-15T17:59:18;0.82;89.15
72591;SHT31;60625;51.212;5.952;2024-01-15T18:04:19;0.81;89.19
72591;SHT31;60625;51.212;5.952;2024-01-15T18:09:22;0.81;89.20
72591;SHT31;60625;51.212;5.952;2024-01-15T18:14:23;0.79;89.14
72591;SHT31;60625;51.212;5.952;2024-01-15T18:19:23;0.76;89.10
72591;SHT31;60625;51.212;5.952;2024-01-15T18:24:24;0.73;89.10
72591;SHT31;60625;51.212;5.952;2024-01-15T18:29:25;0.70;89.18
72591;SHT31;60625;51.212;5.952;2024-01-15T18:34:25;0.69;89.23
72591;SHT31;60625;51.212;5.952;2024-01-15T18:39:26;0.69;89.27
72591;SHT31;60625;51.212;5.952;2024-01-15T18:44:27;0.70;89.37
72591;SHT31;60625;51.212;5.952;2024-01-15T18:49:28;0.71;89.38
72591;SHT31;60625;51.212;5.952;2024-01-15T18:54:29;0.73;89.36
72591;SHT31;60625;51.212;5.952;2024-01-15T18:59:30;0.76;89.42
72591;SHT31;60625;51.212;5.952;2024-01-15T19:04:33;0.80;89.46
72591;SHT31;60625;51.212;5.952;2024-01-15T19:09:35;0.84;89.40
72591;SHT31;60625;51.212;5.952;2024-01-15T19:14:36;0.86;89.36
72591;SHT31;60625;51.212;5.952;2024-01-15T19:19:36;0.86;89.30
72591;SHT31;60625;51.212;5.952;2024-01-15T19:24:37;0.84;89.25
72591;SHT31;60625;51.212;5.952;2024-01-15T19:29:38;0.82;89.24
72591;SHT31;60625;51.212;5.952;2024-01-15T19:34:42;0.80;89.25
72591;SHT31;60625;51.212;5.952;2024-01-15T19:39:43;0.79;89.21
72591;SHT31;60625;51.212;5.952;2024-01-15T19:44:43;0.78;89.17
72591;SHT31;60625;51.212;5.952;2024-01-15T19:49:43;0.77;89.10
72591;SHT31;60625;51.212;5.952;2024-01-15T19:54:47;0.75;89.09
72591;SHT31;60625;51.212;5.952;2024-01-15T19:59:48;0.73;89.01
72591;SHT31;60625;51.212;5.952;2024-01-15T20:04:49;0.71;89.01
72591;SHT31;60625;51.212;5.952;2024-01-15T20:09:50;0.71;89.15
72591;SHT31;60625;51.212;5.952;2024-01-15T20:14:50;0.74;89.29
72591;SHT31;60625;51.212;5.952;2024-01-15T20:19:51;0.77;89.29
72591;SHT31;60625;51.212;5.952;2024-01-15T20:24:51;0.79;89.43
72591;SHT31;60625;51.212;5.952;2024-01-15T20:29:52;0.83;89.54
72591;SHT31;60625;51.212;5.952;2024-01-15T20:34:52;0.85;89.65
72591;SHT31;60625;51.212;5.952;2024-01-15T20:39:53;0.86;89.72
72591;SHT31;60625;51.212;5.952;2024-01-15T20:44:53;0.86;89.80
72591;SHT31;60625;51.212;5.952;2024-01-15T20:49:54;0.90;89.93
72591;SHT31;60625;51.212;5.952;2024-01-15T20:54:54;0.94;90.05
72591;SHT31;60625;51.212;5.952;2024-01-15T20:59:55;0.98;90.15
72591;SHT31;60625;51.212;5.952;2024-01-15T21:04:55;1.02;90.11
72591;SHT31;60625;51.212;5.952;2024-01-15T21:09:56;1.05;90.10
72591;SHT31;60625;51.212;5.952;2024-01-15T21:15:00;1.07;90.11
72591;SHT31;60625;51.212;5.952;2024-01-15T21:20:00;1.10;90.10
72591;SHT31;60625;51.212;5.952;2024-01-15T21:25:01;1.13;90.10
72591;SHT31;60625;51.212;5.952;2024-01-15T21:30:03;1.14;90.10
72591;SHT31;60625;51.212;5.952;2024-01-15T21:35:05;1.16;90.09
72591;SHT31;60625;51.212;5.952;2024-01-15T21:40:07;1.16;90.01
72591;SHT31;60625;51.212;5.952;2024-01-15T21:45:10;1.18;89.99
72591;SHT31;60625;51.212;5.952;2024-01-15T21:50:10;1.18;89.91
72591;SHT31;60625;51.212;5.952;2024-01-15T21:55:11;1.17;89.89
72591;SHT31;60625;51.212;5.952;2024-01-15T22:00:13;1.16;89.85
72591;SHT31;60625;51.212;5.952;2024-01-15T22:05:15;1.14;89.75
72591;SHT31;60625;51.212;5.952;2024-01-15T22:10:17;1.11;89.70
72591;SHT31;60625;51.212;5.952;2024-01-15T22:15:18;1.12;89.70
72591;SHT31;60625;51.212;5.952;2024-01-15T22:20:18;1.12;89.70
72591;SHT31;60625;51.212;5.952;2024-01-15T22:25:19;1.15;89.70
72591;SHT31;60625;51.212;5.952;2024-01-15T22:30:20;1.16;89.70
72591;SHT31;60625;51.212;5.952;2024-01-15T22:35:21;1.19;89.68
72591;SHT31;60625;51.212;5.952;2024-01-15T22:40:22;1.20;89.60
72591;SHT31;60625;51.212;5.952;2024-01-15T22:45:22;1.22;89.61
72591;SHT31;60625;51.212;5.952;2024-01-15T22:50:23;1.24;89.60
72591;SHT31;60625;51.212;5.952;2024-01-15T22:55:23;1.24;89.62
72591;SHT31;60625;51.212;5.952;2024-01-15T23:00:24;1.25;89.68
72591;SHT31;60625;51.212;5.952;2024-01-15T23:05:24;1.26;89.68
72591;SHT31;60625;51.212;5.952;2024-01-15T23:10:25;1.26;89.71
72591;SHT31;60625;51.212;5.952;2024-01-15T23:15:26;1.26;89.76
72591;SHT31;60625;51.212;5.952;2024-01-15T23:20:28;1.26;89.76
72591;SHT31;60625;51.212;5.952;2024-01-15T23:25:28;1.24;89.71
72591;SHT31;60625;51.212;5.952;2024-01-15T23:30:29;1.22;89.70
72591;SHT31;60625;51.212;5.952;2024-01-15T23:35:29;1.20;89.69
72591;SHT31;60625;51.212;5.952;2024-01-15T23:40:30;1.17;89.70
72591;SHT31;60625;51.212;5.952;2024-01-15T23:45:31;1.15;89.75
72591;SHT31;60625;51.212;5.952;2024-01-15T23:50:31;1.15;89.71
72591;SHT31;60625;51.212;5.952;2024-01-15T23:55:32;1.14;89.70
